sensor_id;sensor_type;location;lat;lon;timestamp;P1;durP1;ratioP1;P2;durP2;ratioP2
59271;SDS011;45043;51.068;7.026;2022-10-16T00:00:35;4.50;;;3.40;;
59271;SDS011;45043;51.068;7.026;2022-10-16T00:03:38;4.57;;;3.27;;
59271;SDS011;45043;51.068;7.026;2022-10-16T00:06:39;6.00;;;3.40;;
59271;SDS011;45043;51.068;7.026;2022-10-16T00:09:39;4.03;;;3.63;;
59271;SDS011;45043;51.068;7.026;2022-10-16T00:12:40;6.93;;;3.40;;
59271;SDS011;45043;51.068;7.026;2022-10-16T00:15:40;4.90;;;3.80;;
59271;SDS011;45043;51.068;7.026;2022-10-16T00:18:43;5.40;;;3.27;;
59271;SDS011;45043;51.068;7.026;2022-10-16T00:21:44;4.77;;;3.50;;
59271;SDS011;45043;51.068;7.026;2022-10-16T00:24:44;3.40;;;3.10;;
59271;SDS011;45043;51.068;7.026;2022-10-16T00:27:44;3.80;;;3.33;;
59271;SDS011;45043;51.068;7.026;2022-10-16T00:30:45;4.60;;;3.47;;
59271;SDS011;45043;51.068;7.026;2022-10-16T00:33:45;4.70;;;3.40;;
59271;SDS011;45043;51.068;7.026;2022-10-16T00:36:46;5.23;;;3.10;;
59271;SDS011;45043;51.068;7.026;2022-10-16T00:39:47;6.77;;;3.60;;
59271;SDS011;45043;51.068;7.026;2022-10-16T00:42:47;4.40;;;3.20;;
59271;SDS011;45043;51.068;7.026;2022-10-16T00:45:48;8.47;;;3.53;;
59271;SDS011;45043;51.068;7.026;2022-10-16T00:48:50;5.87;;;3.37;;
59271;SDS011;45043;51.068;7.026;2022-10-16T00:52:11;5.00;;;3.53;;
59271;SDS011;45043;51.068;7.026;2022-10-16T00:55:13;4.83;;;3.10;;
59271;SDS011;45043;51.068;7.026;2022-10-16T00:58:15;6.17;;;3.50;;
59271;SDS011;45043;51.068;7.026;2022-10-16T01:01:15;4.90;;;3.57;;
59271;SDS011;45043;51.068;7.026;2022-10-16T01:04:16;5.27;;;3.40;;
59271;SDS011;45043;51.068;7.026;2022-10-16T01:07:30;4.40;;;3.00;;
59271;SDS011;45043;51.068;7.026;2022-10-16T01:13:54;4.27;;;2.80;;
59271;SDS011;45043;51.068;7.026;2022-10-16T01:17:04;4.37;;;2.93;;
59271;SDS011;45043;51.068;7.026;2022-10-16T01:29:43;3.53;;;2.80;;
59271;SDS011;45043;51.068;7.026;2022-10-16T01:32:57;3.47;;;2.60;;
59271;SDS011;45043;51.068;7.026;2022-10-16T01:36:05;5.97;;;3.00;;
59271;SDS011;45043;51.068;7.026;2022-10-16T01:39:12;3.43;;;2.67;;
59271;SDS011;45043;51.068;7.026;2022-10-16T01:42:16;3.13;;;2.60;;
59271;SDS011;45043;51.068;7.026;2022-10-16T01:45:27;2.60;;;2.40;;
59271;SDS011;45043;51.068;7.026;2022-10-16T01:48:29;5.33;;;2.77;;
59271;SDS011;45043;51.068;7.026;2022-10-16T01:51:33;3.40;;;2.53;;
59271;SDS011;45043;51.068;7.026;2022-10-16T01:54:36;3.73;;;2.60;;
59271;SDS011;45043;51.068;7.026;2022-10-16T01:57:41;3.60;;;2.70;;
59271;SDS011;45043;51.068;7.026;2022-10-16T02:00:46;3.87;;;2.80;;
59271;SDS011;45043;51.068;7.026;2022-10-16T02:03:48;5.03;;;2.53;;
59271;SDS011;45043;51.068;7.026;2022-10-16T02:06:52;4.53;;;2.60;;
59271;SDS011;45043;51.068;7.026;2022-10-16T02:09:53;4.37;;;2.23;;
59271;SDS011;45043;51.068;7.026;2022-10-16T02:12:59;3.20;;;2.00;;
59271;SDS011;45043;51.068;7.026;2022-10-16T02:16:04;4.90;;;2.30;;
59271;SDS011;45043;51.068;7.026;2022-10-16T02:19:05;4.40;;;2.80;;
59271;SDS011;45043;51.068;7.026;2022-10-16T02:22:07;4.13;;;2.30;;
59271;SDS011;45043;51.068;7.026;2022-10-16T02:25:21;2.73;;;2.00;;
59271;SDS011;45043;51.068;7.026;2022-10-16T02:28:33;2.20;;;2.00;;
59271;SDS011;45043;51.068;7.026;2022-10-16T02:31:41;4.07;;;2.00;;
59271;SDS011;45043;51.068;7.026;2022-10-16T02:34:48;3.10;;;2.17;;
59271;SDS011;45043;51.068;7.026;2022-10-16T02:37:49;2.93;;;2.20;;
59271;SDS011;45043;51.068;7.026;2022-10-16T02:40:50;3.97;;;2.20;;
59271;SDS011;45043;51.068;7.026;2022-10-16T02:43:52;3.83;;;2.27;;
59271;SDS011;45043;51.068;7.026;2022-10-16T02:46:52;5.57;;;3.00;;
59271;SDS011;45043;51.068;7.026;2022-10-16T02:49:53;2.50;;;2.30;;
59271;SDS011;45043;51.068;7.026;2022-10-16T02:52:53;2.00;;;1.80;;
59271;SDS011;45043;51.068;7.026;2022-10-16T02:55:54;2.60;;;2.13;;
59271;SDS011;45043;51.068;7.026;2022-10-16T02:58:54;2.80;;;2.00;;
59271;SDS011;45043;51.068;7.026;2022-10-16T03:01:55;4.60;;;1.90;;
59271;SDS011;45043;51.068;7.026;2022-10-16T03:04:55;3.70;;;2.10;;
59271;SDS011;45043;51.068;7.026;2022-10-16T03:07:56;3.40;;;2.20;;
59271;SDS011;45043;51.068;7.026;2022-10-16T03:11:00;3.93;;;2.47;;
59271;SDS011;45043;51.068;7.026;2022-10-16T03:14:02;3.77;;;2.17;;
59271;SDS011;45043;51.068;7.026;2022-10-16T03:17:02;3.00;;;2.20;;
59271;SDS011;45043;51.068;7.026;2022-10-16T03:20:03;3.07;;;1.90;;
59271;SDS011;45043;51.068;7.026;2022-10-16T03:23:04;2.20;;;2.00;;
59271;SDS011;45043;51.068;7.026;2022-10-16T03:26:05;3.07;;;1.80;;
59271;SDS011;45043;51.068;7.026;2022-10-16T03:29:05;6.37;;;1.93;;
59271;SDS011;45043;51.068;7.026;2022-10-16T03:32:06;2.17;;;1.97;;
59271;SDS011;45043;51.068;7.026;2022-10-16T03:35:07;4.93;;;2.10;;
59271;SDS011;45043;51.068;7.026;2022-10-16T03:38:07;2.10;;;1.90;;
59271;SDS011;45043;51.068;7.026;2022-10-16T03:41:08;4.23;;;2.07;;
59271;SDS011;45043;51.068;7.026;2022-10-16T03:44:08;3.63;;;2.00;;
59271;SDS011;45043;51.068;7.026;2022-10-16T03:47:09;2.43;;;2.17;;
59271;SDS011;45043;51.068;7.026;2022-10-16T03:50:09;3.23;;;1.97;;
59271;SDS011;45043;51.068;7.026;2022-10-16T03:53:10;3.23;;;2.20;;
59271;SDS011;45043;51.068;7.026;2022-10-16T03:56:10;3.47;;;2.10;;
59271;SDS011;45043;51.068;7.026;2022-10-16T03:59:11;3.83;;;2.20;;
59271;SDS011;45043;51.068;7.026;2022-10-16T04:02:11;3.57;;;2.30;;
59271;SDS011;45043;51.068;7.026;2022-10-16T04:05:12;2.50;;;2.30;;
59271;SDS011;45043;51.068;7.026;2022-10-16T04:08:12;3.00;;;2.13;;
59271;SDS011;45043;51.068;7.026;2022-10-16T04:11:13;2.63;;;2.17;;
59271;SDS011;45043;51.068;7.026;2022-10-16T04:14:13;4.07;;;2.33;;
59271;SDS011;45043;51.068;7.026;2022-10-16T04:17:14;2.13;;;1.90;;
59271;SDS011;45043;51.068;7.026;2022-10-16T04:20:14;2.43;;;2.20;;
59271;SDS011;45043;51.068;7.026;2022-10-16T04:23:15;2.83;;;2.40;;
59271;SDS011;45043;51.068;7.026;2022-10-16T04:26:15;2.30;;;2.10;;
59271;SDS011;45043;51.068;7.026;2022-10-16T04:29:16;3.90;;;2.23;;
59271;SDS011;45043;51.068;7.026;2022-10-16T04:32:16;3.33;;;2.10;;
59271;SDS011;45043;51.068;7.026;2022-10-16T04:35:17;6.90;;;2.30;;
59271;SDS011;45043;51.068;7.026;2022-10-16T04:38:19;2.30;;;2.10;;
59271;SDS011;45043;51.068;7.026;2022-10-16T04:41:19;2.40;;;2.20;;
59271;SDS011;45043;51.068;7.026;2022-10-16T04:44:19;5.83;;;2.20;;
59271;SDS011;45043;51.068;7.026;2022-10-16T04:47:20;6.40;;;2.30;;
59271;SDS011;45043;51.068;7.026;2022-10-16T04:50:20;2.33;;;2.00;;
59271;SDS011;45043;51.068;7.026;2022-10-16T04:53:38;2.93;;;2.13;;
59271;SDS011;45043;51.068;7.026;2022-10-16T04:56:38;3.10;;;2.20;;
59271;SDS011;45043;51.068;7.026;2022-10-16T04:59:50;4.27;;;2.03;;
59271;SDS011;45043;51.068;7.026;2022-10-16T05:02:51;3.20;;;2.40;;
59271;SDS011;45043;51.068;7.026;2022-10-16T05:05:51;2.90;;;2.20;;
59271;SDS011;45043;51.068;7.026;2022-10-16T05:08:51;2.90;;;2.13;;
59271;SDS011;45043;51.068;7.026;2022-10-16T05:11:52;2.87;;;2.23;;
59271;SDS011;45043;51.068;7.026;2022-10-16T05:14:52;3.67;;;2.00;;
59271;SDS011;45043;51.068;7.026;2022-10-16T05:17:58;4.07;;;2.23;;
59271;SDS011;45043;51.068;7.026;2022-10-16T05:20:58;2.87;;;2.10;;
59271;SDS011;45043;51.068;7.026;2022-10-16T05:23:59;4.80;;;2.03;;
59271;SDS011;45043;51.068;7.026;2022-10-16T05:26:59;8.40;;;2.40;;
59271;SDS011;45043;51.068;7.026;2022-10-16T05:30:00;2.90;;;2.30;;
59271;SDS011;45043;51.068;7.026;2022-10-16T05:33:00;3.40;;;2.20;;
59271;SDS011;45043;51.068;7.026;2022-10-16T05:36:02;3.07;;;2.20;;
59271;SDS011;45043;51.068;7.026;2022-10-16T05:39:03;6.30;;;1.80;;
59271;SDS011;45043;51.068;7.026;2022-10-16T05:42:04;2.90;;;2.00;;
59271;SDS011;45043;51.068;7.026;2022-10-16T05:45:06;6.00;;;2.30;;
59271;SDS011;45043;51.068;7.026;2022-10-16T05:48:08;4.07;;;2.00;;
59271;SDS011;45043;51.068;7.026;2022-10-16T05:51:09;4.10;;;2.00;;
59271;SDS011;45043;51.068;7.026;2022-10-16T05:54:12;2.93;;;1.60;;
59271;SDS011;45043;51.068;7.026;2022-10-16T05:57:13;4.13;;;1.97;;
59271;SDS011;45043;51.068;7.026;2022-10-16T06:00:13;3.10;;;2.40;;
59271;SDS011;45043;51.068;7.026;2022-10-16T06:03:14;2.57;;;1.90;;
59271;SDS011;45043;51.068;7.026;2022-10-16T06:06:15;6.00;;;2.10;;
59271;SDS011;45043;51.068;7.026;2022-10-16T06:09:18;2.20;;;2.00;;
59271;SDS011;45043;51.068;7.026;2022-10-16T06:12:18;4.73;;;1.80;;
59271;SDS011;45043;51.068;7.026;2022-10-16T06:15:20;2.13;;;1.77;;
59271;SDS011;45043;51.068;7.026;2022-10-16T06:18:20;1.73;;;1.63;;
59271;SDS011;45043;51.068;7.026;2022-10-16T06:21:22;2.50;;;1.77;;
59271;SDS011;45043;51.068;7.026;2022-10-16T06:24:25;3.37;;;1.60;;
59271;SDS011;45043;51.068;7.026;2022-10-16T06:27:25;4.13;;;1.93;;
59271;SDS011;45043;51.068;7.026;2022-10-16T06:30:26;8.83;;;1.60;;
59271;SDS011;45043;51.068;7.026;2022-10-16T06:33:26;6.70;;;1.67;;
59271;SDS011;45043;51.068;7.026;2022-10-16T06:36:27;4.40;;;2.00;;
59271;SDS011;45043;51.068;7.026;2022-10-16T06:39:27;2.67;;;2.10;;
59271;SDS011;45043;51.068;7.026;2022-10-16T06:42:28;4.23;;;2.30;;
59271;SDS011;45043;51.068;7.026;2022-10-16T06:45:28;1.90;;;1.80;;
59271;SDS011;45043;51.068;7.026;2022-10-16T06:48:29;2.60;;;2.07;;
59271;SDS011;45043;51.068;7.026;2022-10-16T06:51:29;2.20;;;1.97;;
59271;SDS011;45043;51.068;7.026;2022-10-16T06:54:32;1.80;;;1.70;;
59271;SDS011;45043;51.068;7.026;2022-10-16T06:57:32;2.87;;;1.63;;
59271;SDS011;45043;51.068;7.026;2022-10-16T07:00:33;2.40;;;2.00;;
59271;SDS011;45043;51.068;7.026;2022-10-16T07:03:35;1.70;;;1.60;;
59271;SDS011;45043;51.068;7.026;2022-10-16T07:06:38;2.47;;;1.80;;
59271;SDS011;45043;51.068;7.026;2022-10-16T07:09:40;5.10;;;1.90;;
59271;SDS011;45043;51.068;7.026;2022-10-16T07:12:40;2.80;;;1.50;;
59271;SDS011;45043;51.068;7.026;2022-10-16T07:15:41;2.17;;;1.73;;
59271;SDS011;45043;51.068;7.026;2022-10-16T07:18:42;5.20;;;2.30;;
59271;SDS011;45043;51.068;7.026;2022-10-16T07:21:45;2.50;;;2.00;;
59271;SDS011;45043;51.068;7.026;2022-10-16T07:24:46;1.80;;;1.70;;
59271;SDS011;45043;51.068;7.026;2022-10-16T07:27:46;2.03;;;1.73;;
59271;SDS011;45043;51.068;7.026;2022-10-16T07:30:47;4.30;;;1.70;;
59271;SDS011;45043;51.068;7.026;2022-10-16T07:33:48;2.03;;;1.47;;
59271;SDS011;45043;51.068;7.026;2022-10-16T07:36:49;2.53;;;1.80;;
59271;SDS011;45043;51.068;7.026;2022-10-16T07:39:50;3.93;;;1.97;;
59271;SDS011;45043;51.068;7.026;2022-10-16T07:42:51;2.70;;;1.60;;
59271;SDS011;45043;51.068;7.026;2022-10-16T07:45:52;1.83;;;1.73;;
59271;SDS011;45043;51.068;7.026;2022-10-16T07:48:52;1.67;;;1.57;;
59271;SDS011;45043;51.068;7.026;2022-10-16T07:51:53;2.60;;;2.20;;
59271;SDS011;45043;51.068;7.026;2022-10-16T07:54:54;1.90;;;1.80;;
59271;SDS011;45043;51.068;7.026;2022-10-16T07:57:55;3.17;;;2.30;;
59271;SDS011;45043;51.068;7.026;2022-10-16T08:00:56;2.70;;;2.00;;
59271;SDS011;45043;51.068;7.026;2022-10-16T08:03:57;1.93;;;1.60;;
59271;SDS011;45043;51.068;7.026;2022-10-16T08:06:57;3.33;;;2.17;;
59271;SDS011;45043;51.068;7.026;2022-10-16T08:09:58;2.40;;;2.20;;
59271;SDS011;45043;51.068;7.026;2022-10-16T08:12:58;5.60;;;2.00;;
59271;SDS011;45043;51.068;7.026;2022-10-16T08:15:59;2.17;;;2.07;;
59271;SDS011;45043;51.068;7.026;2022-10-16T08:19:00;3.53;;;1.83;;
59271;SDS011;45043;51.068;7.026;2022-10-16T08:22:00;4.60;;;1.90;;
59271;SDS011;45043;51.068;7.026;2022-10-16T08:25:01;3.57;;;2.10;;
59271;SDS011;45043;51.068;7.026;2022-10-16T08:28:05;2.53;;;2.00;;
59271;SDS011;45043;51.068;7.026;2022-10-16T08:31:11;4.87;;;3.93;;
59271;SDS011;45043;51.068;7.026;2022-10-16T08:34:14;2.60;;;1.70;;
59271;SDS011;45043;51.068;7.026;2022-10-16T08:37:15;3.17;;;1.60;;
59271;SDS011;45043;51.068;7.026;2022-10-16T08:40:20;1.63;;;1.33;;
59271;SDS011;45043;51.068;7.026;2022-10-16T08:43:43;3.30;;;1.70;;
59271;SDS011;45043;51.068;7.026;2022-10-16T08:50:24;1.93;;;1.37;;
59271;SDS011;45043;51.068;7.026;2022-10-16T08:53:30;2.83;;;2.23;;
59271;SDS011;45043;51.068;7.026;2022-10-16T08:56:38;1.67;;;1.37;;
59271;SDS011;45043;51.068;7.026;2022-10-16T08:59:38;1.93;;;1.40;;
59271;SDS011;45043;51.068;7.026;2022-10-16T09:02:49;1.60;;;1.50;;
59271;SDS011;45043;51.068;7.026;2022-10-16T09:12:37;2.27;;;1.43;;
59271;SDS011;45043;51.068;7.026;2022-10-16T09:19:14;1.43;;;1.17;;
59271;SDS011;45043;51.068;7.026;2022-10-16T09:22:28;2.30;;;1.47;;
59271;SDS011;45043;51.068;7.026;2022-10-16T09:25:32;1.50;;;1.20;;
59271;SDS011;45043;51.068;7.026;2022-10-16T09:28:33;4.10;;;1.30;;
59271;SDS011;45043;51.068;7.026;2022-10-16T09:31:35;1.37;;;1.00;;
59271;SDS011;45043;51.068;7.026;2022-10-16T09:34:38;1.60;;;1.07;;
59271;SDS011;45043;51.068;7.026;2022-10-16T09:37:43;2.53;;;1.10;;
59271;SDS011;45043;51.068;7.026;2022-10-16T09:40:45;3.30;;;1.03;;
59271;SDS011;45043;51.068;7.026;2022-10-16T09:43:48;4.53;;;1.00;;
59271;SDS011;45043;51.068;7.026;2022-10-16T09:47:03;2.70;;;1.10;;
59271;SDS011;45043;51.068;7.026;2022-10-16T09:50:14;2.50;;;0.93;;
59271;SDS011;45043;51.068;7.026;2022-10-16T09:53:22;2.10;;;1.40;;
59271;SDS011;45043;51.068;7.026;2022-10-16T09:56:24;4.53;;;0.90;;
59271;SDS011;45043;51.068;7.026;2022-10-16T09:59:27;3.50;;;1.30;;
59271;SDS011;45043;51.068;7.026;2022-10-16T10:02:30;2.17;;;1.03;;
59271;SDS011;45043;51.068;7.026;2022-10-16T10:05:34;2.57;;;0.80;;
59271;SDS011;45043;51.068;7.026;2022-10-16T10:08:35;2.73;;;1.20;;
59271;SDS011;45043;51.068;7.026;2022-10-16T10:11:47;1.57;;;1.20;;
59271;SDS011;45043;51.068;7.026;2022-10-16T10:14:51;2.77;;;1.47;;
59271;SDS011;45043;51.068;7.026;2022-10-16T10:17:57;1.37;;;1.10;;
59271;SDS011;45043;51.068;7.026;2022-10-16T10:20:59;1.93;;;1.03;;
59271;SDS011;45043;51.068;7.026;2022-10-16T10:24:02;1.20;;;1.00;;
59271;SDS011;45043;51.068;7.026;2022-10-16T10:27:05;0.80;;;0.80;;
59271;SDS011;45043;51.068;7.026;2022-10-16T10:37:10;3.27;;;1.20;;
59271;SDS011;45043;51.068;7.026;2022-10-16T10:40:37;1.13;;;1.07;;
59271;SDS011;45043;51.068;7.026;2022-10-16T10:44:01;4.07;;;1.30;;
59271;SDS011;45043;51.068;7.026;2022-10-16T10:50:39;5.37;;;1.03;;
59271;SDS011;45043;51.068;7.026;2022-10-16T10:53:52;1.73;;;1.20;;
59271;SDS011;45043;51.068;7.026;2022-10-16T10:57:30;3.90;;;1.30;;
59271;SDS011;45043;51.068;7.026;2022-10-16T11:04:08;2.93;;;1.03;;
59271;SDS011;45043;51.068;7.026;2022-10-16T11:07:17;2.90;;;1.00;;
59271;SDS011;45043;51.068;7.026;2022-10-16T11:10:26;2.53;;;1.33;;
59271;SDS011;45043;51.068;7.026;2022-10-16T11:13:37;2.40;;;1.10;;
59271;SDS011;45043;51.068;7.026;2022-10-16T11:16:49;3.20;;;1.00;;
59271;SDS011;45043;51.068;7.026;2022-10-16T11:19:57;2.17;;;1.07;;
59271;SDS011;45043;51.068;7.026;2022-10-16T11:26:26;4.03;;;2.70;;
59271;SDS011;45043;51.068;7.026;2022-10-16T11:29:43;6.10;;;2.83;;
59271;SDS011;45043;51.068;7.026;2022-10-16T11:36:14;1.90;;;1.10;;
59271;SDS011;45043;51.068;7.026;2022-10-16T11:39:24;1.57;;;1.07;;
59271;SDS011;45043;51.068;7.026;2022-10-16T11:42:28;2.70;;;1.40;;
59271;SDS011;45043;51.068;7.026;2022-10-16T11:45:46;2.70;;;1.33;;
59271;SDS011;45043;51.068;7.026;2022-10-16T11:48:54;3.73;;;1.90;;
59271;SDS011;45043;51.068;7.026;2022-10-16T11:52:07;2.83;;;1.37;;
59271;SDS011;45043;51.068;7.026;2022-10-16T11:55:20;4.27;;;1.53;;
59271;SDS011;45043;51.068;7.026;2022-10-16T11:58:28;4.30;;;1.43;;
59271;SDS011;45043;51.068;7.026;2022-10-16T12:01:43;3.40;;;1.67;;
59271;SDS011;45043;51.068;7.026;2022-10-16T12:04:51;1.77;;;1.30;;
59271;SDS011;45043;51.068;7.026;2022-10-16T12:08:08;2.10;;;1.00;;
59271;SDS011;45043;51.068;7.026;2022-10-16T12:17:38;3.47;;;1.23;;
59271;SDS011;45043;51.068;7.026;2022-10-16T12:20:38;1.87;;;0.80;;
59271;SDS011;45043;51.068;7.026;2022-10-16T12:23:50;1.83;;;1.03;;
59271;SDS011;45043;51.068;7.026;2022-10-16T12:27:05;3.00;;;1.00;;
59271;SDS011;45043;51.068;7.026;2022-10-16T12:30:23;2.60;;;1.47;;
59271;SDS011;45043;51.068;7.026;2022-10-16T12:33:42;1.37;;;1.27;;
59271;SDS011;45043;51.068;7.026;2022-10-16T12:37:07;2.20;;;1.07;;
59271;SDS011;45043;51.068;7.026;2022-10-16T12:40:14;1.10;;;0.97;;
59271;SDS011;45043;51.068;7.026;2022-10-16T12:43:25;1.93;;;1.13;;
59271;SDS011;45043;51.068;7.026;2022-10-16T12:49:36;2.87;;;1.93;;
59271;SDS011;45043;51.068;7.026;2022-10-16T12:52:39;3.27;;;1.63;;
59271;SDS011;45043;51.068;7.026;2022-10-16T12:55:43;2.10;;;1.50;;
59271;SDS011;45043;51.068;7.026;2022-10-16T12:59:06;3.23;;;1.40;;
59271;SDS011;45043;51.068;7.026;2022-10-16T13:16:02;4.70;;;1.93;;
59271;SDS011;45043;51.068;7.026;2022-10-16T13:22:21;1.93;;;1.83;;
59271;SDS011;45043;51.068;7.026;2022-10-16T13:28:35;2.70;;;1.53;;
59271;SDS011;45043;51.068;7.026;2022-10-16T13:31:38;2.17;;;1.20;;
59271;SDS011;45043;51.068;7.026;2022-10-16T13:34:46;1.40;;;1.30;;
59271;SDS011;45043;51.068;7.026;2022-10-16T13:37:49;1.33;;;1.10;;
59271;SDS011;45043;51.068;7.026;2022-10-16T13:41:00;3.50;;;2.47;;
59271;SDS011;45043;51.068;7.026;2022-10-16T13:44:03;1.83;;;1.60;;
59271;SDS011;45043;51.068;7.026;2022-10-16T13:47:05;5.23;;;2.97;;
59271;SDS011;45043;51.068;7.026;2022-10-16T13:50:09;1.50;;;1.40;;
59271;SDS011;45043;51.068;7.026;2022-10-16T13:53:13;2.23;;;1.30;;
59271;SDS011;45043;51.068;7.026;2022-10-16T13:56:15;1.47;;;1.30;;
59271;SDS011;45043;51.068;7.026;2022-10-16T13:59:26;1.93;;;1.40;;
59271;SDS011;45043;51.068;7.026;2022-10-16T14:02:34;2.00;;;1.20;;
59271;SDS011;45043;51.068;7.026;2022-10-16T14:05:45;1.60;;;1.30;;
59271;SDS011;45043;51.068;7.026;2022-10-16T14:09:09;2.50;;;1.10;;
59271;SDS011;45043;51.068;7.026;2022-10-16T14:12:21;1.60;;;1.30;;
59271;SDS011;45043;51.068;7.026;2022-10-16T14:15:22;2.03;;;1.30;;
59271;SDS011;45043;51.068;7.026;2022-10-16T14:18:24;1.30;;;1.20;;
59271;SDS011;45043;51.068;7.026;2022-10-16T14:21:27;1.37;;;0.97;;
59271;SDS011;45043;51.068;7.026;2022-10-16T14:24:32;1.57;;;1.10;;
59271;SDS011;45043;51.068;7.026;2022-10-16T14:27:35;0.90;;;0.90;;
59271;SDS011;45043;51.068;7.026;2022-10-16T14:30:37;2.93;;;1.07;;
59271;SDS011;45043;51.068;7.026;2022-10-16T14:33:37;1.93;;;0.93;;
59271;SDS011;45043;51.068;7.026;2022-10-16T14:36:40;2.80;;;1.30;;
59271;SDS011;45043;51.068;7.026;2022-10-16T14:39:41;1.33;;;1.20;;
59271;SDS011;45043;51.068;7.026;2022-10-16T14:42:42;3.23;;;1.57;;
59271;SDS011;45043;51.068;7.026;2022-10-16T14:45:49;2.63;;;2.27;;
59271;SDS011;45043;51.068;7.026;2022-10-16T14:48:53;1.67;;;1.30;;
59271;SDS011;45043;51.068;7.026;2022-10-16T14:52:08;3.93;;;1.43;;
59271;SDS011;45043;51.068;7.026;2022-10-16T14:55:10;5.30;;;1.83;;
59271;SDS011;45043;51.068;7.026;2022-10-16T15:01:19;2.33;;;1.33;;
59271;SDS011;45043;51.068;7.026;2022-10-16T15:04:20;2.73;;;1.40;;
59271;SDS011;45043;51.068;7.026;2022-10-16T15:07:21;2.30;;;1.20;;
59271;SDS011;45043;51.068;7.026;2022-10-16T15:10:22;2.83;;;1.30;;
59271;SDS011;45043;51.068;7.026;2022-10-16T15:13:25;3.07;;;1.70;;
59271;SDS011;45043;51.068;7.026;2022-10-16T15:16:26;3.13;;;1.87;;
59271;SDS011;45043;51.068;7.026;2022-10-16T15:19:26;3.53;;;1.60;;
59271;SDS011;45043;51.068;7.026;2022-10-16T15:22:27;3.23;;;1.93;;
59271;SDS011;45043;51.068;7.026;2022-10-16T15:25:35;2.00;;;1.17;;
59271;SDS011;45043;51.068;7.026;2022-10-16T15:28:39;3.00;;;2.70;;
59271;SDS011;45043;51.068;7.026;2022-10-16T15:31:40;2.20;;;1.63;;
59271;SDS011;45043;51.068;7.026;2022-10-16T15:34:42;2.70;;;2.37;;
59271;SDS011;45043;51.068;7.026;2022-10-16T15:37:43;2.10;;;1.60;;
59271;SDS011;45043;51.068;7.026;2022-10-16T15:40:43;1.80;;;1.70;;
59271;SDS011;45043;51.068;7.026;2022-10-16T15:43:48;2.53;;;2.20;;
59271;SDS011;45043;51.068;7.026;2022-10-16T15:46:50;1.87;;;1.20;;
59271;SDS011;45043;51.068;7.026;2022-10-16T15:49:50;3.97;;;2.27;;
59271;SDS011;45043;51.068;7.026;2022-10-16T15:52:51;6.13;;;2.03;;
59271;SDS011;45043;51.068;7.026;2022-10-16T15:55:51;2.67;;;1.90;;
59271;SDS011;45043;51.068;7.026;2022-10-16T15:58:52;2.47;;;2.13;;
59271;SDS011;45043;51.068;7.026;2022-10-16T16:01:53;3.87;;;3.00;;
59271;SDS011;45043;51.068;7.026;2022-10-16T16:04:54;4.77;;;3.10;;
59271;SDS011;45043;51.068;7.026;2022-10-16T16:07:54;5.03;;;2.90;;
59271;SDS011;45043;51.068;7.026;2022-10-16T16:10:58;2.10;;;1.90;;
59271;SDS011;45043;51.068;7.026;2022-10-16T16:14:10;3.00;;;1.90;;
59271;SDS011;45043;51.068;7.026;2022-10-16T16:17:13;4.03;;;1.60;;
59271;SDS011;45043;51.068;7.026;2022-10-16T16:20:14;1.33;;;1.23;;
59271;SDS011;45043;51.068;7.026;2022-10-16T16:23:15;2.53;;;1.50;;
59271;SDS011;45043;51.068;7.026;2022-10-16T16:26:22;1.93;;;1.67;;
59271;SDS011;45043;51.068;7.026;2022-10-16T16:29:26;2.00;;;1.30;;
59271;SDS011;45043;51.068;7.026;2022-10-16T16:32:27;2.60;;;1.50;;
59271;SDS011;45043;51.068;7.026;2022-10-16T16:35:27;2.00;;;1.57;;
59271;SDS011;45043;51.068;7.026;2022-10-16T16:38:29;1.93;;;1.50;;
59271;SDS011;45043;51.068;7.026;2022-10-16T16:41:30;2.53;;;1.30;;
59271;SDS011;45043;51.068;7.026;2022-10-16T16:44:30;2.17;;;1.40;;
59271;SDS011;45043;51.068;7.026;2022-10-16T16:47:31;3.50;;;1.70;;
59271;SDS011;45043;51.068;7.026;2022-10-16T16:50:34;2.63;;;1.70;;
59271;SDS011;45043;51.068;7.026;2022-10-16T16:53:36;3.60;;;1.80;;
59271;SDS011;45043;51.068;7.026;2022-10-16T16:56:36;4.20;;;1.40;;
59271;SDS011;45043;51.068;7.026;2022-10-16T16:59:37;1.80;;;1.50;;
59271;SDS011;45043;51.068;7.026;2022-10-16T17:02:37;1.80;;;1.40;;
59271;SDS011;45043;51.068;7.026;2022-10-16T17:05:43;1.73;;;1.63;;
59271;SDS011;45043;51.068;7.026;2022-10-16T17:08:44;4.10;;;1.70;;
59271;SDS011;45043;51.068;7.026;2022-10-16T17:11:44;4.37;;;1.57;;
59271;SDS011;45043;51.068;7.026;2022-10-16T17:14:46;2.10;;;1.70;;
59271;SDS011;45043;51.068;7.026;2022-10-16T17:17:46;2.20;;;1.80;;
59271;SDS011;45043;51.068;7.026;2022-10-16T17:20:47;3.33;;;1.73;;
59271;SDS011;45043;51.068;7.026;2022-10-16T17:23:50;3.97;;;1.80;;
59271;SDS011;45043;51.068;7.026;2022-10-16T17:26:51;4.37;;;1.67;;
59271;SDS011;45043;51.068;7.026;2022-10-16T17:29:52;2.83;;;1.90;;
59271;SDS011;45043;51.068;7.026;2022-10-16T17:32:52;2.80;;;2.07;;
59271;SDS011;45043;51.068;7.026;2022-10-16T17:35:53;2.53;;;1.80;;
59271;SDS011;45043;51.068;7.026;2022-10-16T17:38:53;2.20;;;1.83;;
59271;SDS011;45043;51.068;7.026;2022-10-16T17:41:54;2.73;;;2.00;;
59271;SDS011;45043;51.068;7.026;2022-10-16T17:44:54;2.40;;;1.80;;
59271;SDS011;45043;51.068;7.026;2022-10-16T17:47:55;2.87;;;2.00;;
59271;SDS011;45043;51.068;7.026;2022-10-16T17:50:58;2.40;;;1.83;;
59271;SDS011;45043;51.068;7.026;2022-10-16T17:53:59;3.00;;;2.03;;
59271;SDS011;45043;51.068;7.026;2022-10-16T17:57:00;2.30;;;2.10;;
59271;SDS011;45043;51.068;7.026;2022-10-16T18:00:02;2.40;;;2.00;;
59271;SDS011;45043;51.068;7.026;2022-10-16T18:03:04;2.87;;;1.87;;
59271;SDS011;45043;51.068;7.026;2022-10-16T18:06:05;2.00;;;1.90;;
59271;SDS011;45043;51.068;7.026;2022-10-16T18:09:06;2.30;;;2.00;;
59271;SDS011;45043;51.068;7.026;2022-10-16T18:12:08;2.67;;;2.13;;
59271;SDS011;45043;51.068;7.026;2022-10-16T18:15:08;5.00;;;2.07;;
59271;SDS011;45043;51.068;7.026;2022-10-16T18:18:10;3.70;;;1.87;;
59271;SDS011;45043;51.068;7.026;2022-10-16T18:21:11;2.00;;;1.67;;
59271;SDS011;45043;51.068;7.026;2022-10-16T18:24:14;2.00;;;1.80;;
59271;SDS011;45043;51.068;7.026;2022-10-16T18:27:16;2.80;;;2.00;;
59271;SDS011;45043;51.068;7.026;2022-10-16T18:30:17;2.63;;;2.00;;
59271;SDS011;45043;51.068;7.026;2022-10-16T18:33:17;3.50;;;1.77;;
59271;SDS011;45043;51.068;7.026;2022-10-16T18:36:19;3.47;;;2.00;;
59271;SDS011;45043;51.068;7.026;2022-10-16T18:39:21;2.30;;;2.10;;
59271;SDS011;45043;51.068;7.026;2022-10-16T18:42:22;2.87;;;2.10;;
59271;SDS011;45043;51.068;7.026;2022-10-16T18:45:23;2.00;;;1.70;;
59271;SDS011;45043;51.068;7.026;2022-10-16T18:48:23;2.33;;;2.13;;
59271;SDS011;45043;51.068;7.026;2022-10-16T18:51:29;2.10;;;1.90;;
59271;SDS011;45043;51.068;7.026;2022-10-16T18:54:31;2.20;;;1.80;;
59271;SDS011;45043;51.068;7.026;2022-10-16T18:57:32;2.43;;;1.83;;
59271;SDS011;45043;51.068;7.026;2022-10-16T19:00:32;2.67;;;1.90;;
59271;SDS011;45043;51.068;7.026;2022-10-16T19:03:33;4.10;;;2.13;;
59271;SDS011;45043;51.068;7.026;2022-10-16T19:06:38;4.83;;;2.17;;
59271;SDS011;45043;51.068;7.026;2022-10-16T19:09:41;3.97;;;2.03;;
59271;SDS011;45043;51.068;7.026;2022-10-16T19:12:42;3.03;;;2.00;;
59271;SDS011;45043;51.068;7.026;2022-10-16T19:15:42;5.20;;;2.20;;
59271;SDS011;45043;51.068;7.026;2022-10-16T19:18:43;3.20;;;1.90;;
59271;SDS011;45043;51.068;7.026;2022-10-16T19:21:44;2.73;;;1.80;;
59271;SDS011;45043;51.068;7.026;2022-10-16T19:24:45;2.93;;;2.00;;
59271;SDS011;45043;51.068;7.026;2022-10-16T19:27:47;4.57;;;1.80;;
59271;SDS011;45043;51.068;7.026;2022-10-16T19:30:50;1.90;;;1.73;;
59271;SDS011;45043;51.068;7.026;2022-10-16T19:33:51;1.90;;;1.73;;
59271;SDS011;45043;51.068;7.026;2022-10-16T19:36:53;3.10;;;2.00;;
59271;SDS011;45043;51.068;7.026;2022-10-16T19:39:54;2.53;;;2.20;;
59271;SDS011;45043;51.068;7.026;2022-10-16T19:42:54;2.67;;;2.10;;
59271;SDS011;45043;51.068;7.026;2022-10-16T19:45:55;3.00;;;2.10;;